Time;durP1;ratioP1;P1;durP2;ratioP2;P2;SDS_P1;SDS_P2;PMS_P1;PMS_P2;Temp;Humidity;BMP_temperature;BMP_pressure;BME280_temperature;BME280_humidity;BME280_pressure;Samples;Min_cycle;Max_cycle;Signal;HPM_P1;HPM_P2
2023/08/22 00:00:52;;;;;;;3.67;1.90;;;25.20;61.40;;;;;;4986374;28;90208;-85
2023/08/22 00:03:18;;;;;;;3.85;1.90;;;25.20;61.40;;;;;;4986574;28;89187;-85
2023/08/22 00:05:44;;;;;;;1.95;1.73;;;25.20;61.50;;;;;;4987735;28;89254;-86
2023/08/22 00:08:10;;;;;;;4.50;1.80;;;25.20;61.30;;;;;;4988052;28;87833;-86
2023/08/22 00:10:36;;;;;;;1.80;1.70;;;25.20;61.60;;;;;;4989851;28;87301;-85
2023/08/22 00:13:03;;;;;;;2.10;1.77;;;25.20;62.40;;;;;;4986273;28;87284;-85
2023/08/22 00:15:28;;;;;;;1.80;1.63;;;25.20;61.50;;;;;;4987453;28;87168;-85
2023/08/22 00:17:54;;;;;;;2.28;1.88;;;25.20;61.60;;;;;;4988413;28;88897;-85
2023/08/22 00:20:22;;;;;;;2.80;1.58;;;25.20;61.60;;;;;;4991410;28;89089;-87
2023/08/22 00:22:48;;;;;;;1.92;1.63;;;25.20;61.90;;;;;;4991761;28;87527;-85
2023/08/22 00:25:13;;;;;;;2.63;1.73;;;25.20;61.70;;;;;;4990580;28;87018;-85
2023/08/22 00:27:39;;;;;;;3.83;2.33;;;25.20;61.80;;;;;;4991106;28;89953;-86
2023/08/22 00:30:07;;;;;;;1.98;1.45;;;25.20;61.80;;;;;;4992802;28;87399;-85
2023/08/22 00:32:32;;;;;;;1.90;1.70;;;25.20;61.70;;;;;;4991797;28;87470;-85
2023/08/22 00:34:58;;;;;;;2.58;1.83;;;25.20;61.70;;;;;;4991469;28;86519;-86
2023/08/22 00:37:24;;;;;;;2.40;1.52;;;25.20;61.70;;;;;;4991653;28;87856;-86
2023/08/22 00:39:50;;;;;;;1.92;1.58;;;25.10;61.70;;;;;;4989915;28;89884;-86
2023/08/22 00:42:15;;;;;;;2.30;1.77;;;25.10;61.70;;;;;;4990200;28;88836;-85
2023/08/22 00:44:41;;;;;;;2.58;2.00;;;25.20;61.90;;;;;;4992225;28;86885;-86
2023/08/22 00:47:07;;;;;;;2.42;1.63;;;25.10;61.70;;;;;;4991013;28;87999;-86
2023/08/22 00:49:33;;;;;;;1.98;1.83;;;25.10;61.60;;;;;;4991747;28;88186;-85
2023/08/22 00:52:01;;;;;;;1.77;1.60;;;25.10;61.80;;;;;;4989750;28;87385;-85
2023/08/22 00:54:29;;;;;;;3.00;1.50;;;25.10;61.80;;;;;;4991494;28;87520;-84
2023/08/22 00:56:56;;;;;;;3.38;2.20;;;25.10;61.90;;;;;;4993131;28;87764;-88
2023/08/22 00:59:22;;;;;;;2.25;1.77;;;25.10;61.90;;;;;;4991303;28;87057;-84
2023/08/22 01:01:48;;;;;;;2.58;1.55;;;25.10;62.00;;;;;;4990045;28;87827;-85
2023/08/22 01:04:13;;;;;;;2.58;1.70;;;25.10;62.00;;;;;;4990548;28;89549;-86
2023/08/22 01:06:51;;;;;;;2.10;1.48;;;25.10;62.00;;;;;;4990105;28;88015;-86
2023/08/22 01:10:14;;;;;;;4.13;1.90;;;25.10;62.20;;;;;;4990427;28;88857;-85
2023/08/22 01:13:01;;;;;;;5.15;2.03;;;25.10;62.10;;;;;;4967679;28;87307;-90
2023/08/22 01:15:28;;;;;;;2.50;1.80;;;25.10;62.10;;;;;;4974992;28;87463;-87
2023/08/22 01:17:57;;;;;;;1.67;1.40;;;25.00;62.00;;;;;;4991478;28;87522;-85
2023/08/22 01:20:27;;;;;;;2.17;1.95;;;25.00;62.10;;;;;;4990958;28;87807;-86
2023/08/22 01:22:54;;;;;;;2.80;1.50;;;25.00;62.10;;;;;;4989544;28;87242;-85
2023/08/22 01:25:19;;;;;;;2.60;1.70;;;25.10;62.20;;;;;;4989817;28;86531;-87
2023/08/22 01:27:53;;;;;;;1.95;1.40;;;25.00;62.10;;;;;;4991692;28;87802;-89
2023/08/22 01:30:31;;;;;;;1.52;1.35;;;25.00;62.10;;;;;;4989029;28;87408;-85
2023/08/22 01:33:09;;;;;;;2.47;2.00;;;25.10;62.10;;;;;;4992262;28;88903;-84
2023/08/22 01:35:37;;;;;;;3.33;1.52;;;25.00;61.90;;;;;;4988560;28;90872;-86
2023/08/22 01:38:04;;;;;;;3.03;1.70;;;25.00;61.90;;;;;;4988764;28;87615;-86
2023/08/22 01:40:31;;;;;;;2.40;1.83;;;25.00;62.30;;;;;;4991815;28;87506;-87
2023/08/22 01:42:56;;;;;;;3.13;1.60;;;25.00;61.90;;;;;;4991537;28;87843;-86
2023/08/22 01:45:22;;;;;;;2.75;1.42;;;25.00;62.00;;;;;;4989939;28;87000;-84
2023/08/22 01:47:47;;;;;;;2.72;1.70;;;25.00;61.90;;;;;;4990986;28;87961;-85
2023/08/22 01:50:13;;;;;;;2.10;1.60;;;25.00;62.10;;;;;;4991772;28;87234;-85
2023/08/22 01:52:39;;;;;;;2.35;1.90;;;25.00;62.90;;;;;;4989717;28;87421;-86
2023/08/22 01:55:06;;;;;;;1.75;1.65;;;25.00;62.20;;;;;;4989345;28;87981;-84
2023/08/22 01:57:31;;;;;;;3.80;2.03;;;25.00;62.30;;;;;;4988223;28;88548;-85
2023/08/22 01:59:58;;;;;;;2.10;1.90;;;25.00;62.30;;;;;;4987777;28;89731;-86
2023/08/22 02:02:24;;;;;;;3.25;1.92;;;24.90;62.20;;;;;;4989279;28;87458;-89
2023/08/22 02:04:49;;;;;;;2.03;1.50;;;24.90;62.20;;;;;;4988102;28;87663;-83
2023/08/22 02:07:15;;;;;;;2.08;1.40;;;25.00;62.20;;;;;;4990378;28;87725;-86
2023/08/22 02:09:41;;;;;;;2.08;1.70;;;25.00;62.40;;;;;;4987297;28;88782;-84
2023/08/22 02:12:07;;;;;;;1.48;1.30;;;24.90;62.20;;;;;;4991518;28;87934;-84
2023/08/22 02:14:33;;;;;;;1.80;1.40;;;24.90;62.20;;;;;;4991219;28;87015;-84
2023/08/22 02:16:59;;;;;;;1.95;1.70;;;25.00;62.10;;;;;;4986584;28;90436;-85
2023/08/22 02:19:25;;;;;;;2.95;1.70;;;24.90;62.20;;;;;;4989217;28;88034;-85
2023/08/22 02:21:50;;;;;;;3.85;2.03;;;24.90;62.10;;;;;;4988766;28;88629;-85
2023/08/22 02:24:16;;;;;;;4.00;1.90;;;24.90;62.30;;;;;;4987830;28;87228;-84
2023/08/22 02:26:42;;;;;;;1.77;1.60;;;24.90;62.10;;;;;;4990635;28;87595;-85
2023/08/22 02:29:09;;;;;;;3.08;1.70;;;24.90;62.20;;;;;;5003157;28;88919;-84
2023/08/22 02:31:34;;;;;;;2.85;1.67;;;24.90;62.20;;;;;;4987364;28;87724;-88
2023/08/22 02:34:00;;;;;;;2.30;1.80;;;24.90;62.20;;;;;;4988909;28;87352;-87
2023/08/22 02:36:26;;;;;;;2.65;1.55;;;24.90;62.00;;;;;;4990595;28;88828;-83
2023/08/22 02:38:51;;;;;;;2.22;1.42;;;24.90;62.10;;;;;;4990566;28;89016;-83
2023/08/22 02:41:17;;;;;;;2.13;1.70;;;24.90;62.20;;;;;;4988871;28;87363;-83
2023/08/22 02:43:42;;;;;;;1.85;1.40;;;24.90;62.00;;;;;;4988760;28;87446;-86
2023/08/22 02:46:08;;;;;;;2.17;1.77;;;24.90;62.30;;;;;;4988047;28;88841;-86
2023/08/22 02:48:34;;;;;;;2.05;1.40;;;24.80;62.10;;;;;;4988438;28;88121;-82
2023/08/22 02:50:59;;;;;;;2.60;1.60;;;24.90;62.30;;;;;;4988146;28;87565;-85
2023/08/22 02:53:25;;;;;;;1.80;1.50;;;24.90;62.20;;;;;;4987010;28;88631;-84
2023/08/22 02:55:51;;;;;;;1.67;1.48;;;24.90;62.20;;;;;;4988287;28;88754;-85
2023/08/22 02:58:16;;;;;;;1.50;1.40;;;24.90;62.20;;;;;;4985773;28;90556;-83
2023/08/22 03:00:46;;;;;;;3.03;1.90;;;24.80;62.00;;;;;;4988230;28;87310;-83
2023/08/22 03:03:12;;;;;;;1.60;1.50;;;24.80;62.10;;;;;;4988183;28;86865;-84
2023/08/22 03:05:38;;;;;;;3.05;2.03;;;24.90;62.40;;;;;;4989579;28;87451;-82
2023/08/22 03:08:04;;;;;;;3.20;1.90;;;24.90;62.30;;;;;;4987814;28;88902;-83
2023/08/22 03:10:29;;;;;;;2.15;1.77;;;24.90;62.30;;;;;;4988968;28;88678;-84
2023/08/22 03:12:55;;;;;;;2.08;1.60;;;24.80;62.40;;;;;;4987550;28;89533;-83
2023/08/22 03:15:20;;;;;;;2.70;1.60;;;24.90;62.40;;;;;;4988037;28;88227;-82
2023/08/22 03:17:46;;;;;;;2.85;1.80;;;24.80;62.20;;;;;;4990820;28;88270;-83
2023/08/22 03:20:12;;;;;;;1.85;1.40;;;24.90;62.30;;;;;;4989108;28;87769;-82
2023/08/22 03:22:37;;;;;;;2.00;1.58;;;24.90;62.30;;;;;;4987321;28;87677;-84
2023/08/22 03:25:03;;;;;;;1.65;1.52;;;24.80;62.20;;;;;;4988120;28;87676;-82
2023/08/22 03:27:29;;;;;;;1.60;1.50;;;24.80;62.20;;;;;;4989151;28;87885;-86
2023/08/22 03:29:54;;;;;;;2.35;1.80;;;24.80;62.10;;;;;;4988779;28;86922;-83
2023/08/22 03:32:20;;;;;;;2.15;1.50;;;24.80;62.20;;;;;;4988200;28;87414;-86
2023/08/22 03:34:45;;;;;;;1.58;1.48;;;24.80;62.10;;;;;;4987120;28;88584;-82
2023/08/22 03:37:11;;;;;;;3.08;1.75;;;24.80;62.20;;;;;;4989368;28;88049;-82
2023/08/22 03:39:37;;;;;;;2.92;1.58;;;24.80;62.20;;;;;;4987182;28;87545;-84
2023/08/22 03:42:02;;;;;;;1.60;1.50;;;24.80;62.30;;;;;;4988123;28;87540;-83
2023/08/22 03:44:30;;;;;;;3.00;1.77;;;24.80;62.20;;;;;;4986671;28;87199;-83
2023/08/22 03:46:55;;;;;;;2.05;1.50;;;24.80;62.10;;;;;;4985992;28;87912;-85
2023/08/22 03:49:21;;;;;;;1.80;1.30;;;24.80;62.30;;;;;;4988096;28;87786;-84
2023/08/22 03:51:47;;;;;;;2.88;1.52;;;24.80;62.10;;;;;;4988396;28;86772;-83
2023/08/22 03:54:12;;;;;;;2.22;1.50;;;24.80;62.20;;;;;;4990630;28;89332;-82
2023/08/22 03:56:38;;;;;;;2.30;1.60;;;24.70;62.10;;;;;;4992421;28;88354;-83
2023/08/22 03:59:04;;;;;;;2.05;1.25;;;24.80;62.20;;;;;;4991035;28;88686;-83
2023/08/22 04:01:29;;;;;;;1.45;1.35;;;24.80;62.10;;;;;;4991027;28;87446;-85
2023/08/22 04:03:55;;;;;;;1.75;1.65;;;24.80;62.30;;;;;;4989398;28;90411;-84
2023/08/22 04:06:21;;;;;;;2.55;1.83;;;24.80;62.10;;;;;;4991635;28;87841;-85
2023/08/22 04:08:46;;;;;;;2.08;1.55;;;24.80;62.10;;;;;;4992601;28;88077;-83
2023/08/22 04:11:12;;;;;;;2.25;1.75;;;24.80;62.00;;;;;;4990733;28;88640;-82
2023/08/22 04:13:38;;;;;;;1.90;1.70;;;24.70;62.10;;;;;;4991188;28;88014;-83
2023/08/22 04:16:03;;;;;;;2.47;1.38;;;24.80;62.20;;;;;;4988402;28;90296;-88
2023/08/22 04:18:30;;;;;;;1.80;1.50;;;24.80;62.10;;;;;;4991443;28;87546;-88
2023/08/22 04:20:55;;;;;;;1.80;1.23;;;24.80;62.20;;;;;;4990632;28;87497;-82
2023/08/22 04:23:21;;;;;;;1.50;1.40;;;24.80;62.10;;;;;;4989114;28;88414;-85
2023/08/22 04:25:46;;;;;;;1.77;1.50;;;24.80;62.00;;;;;;4990833;28;87729;-82
2023/08/22 04:28:13;;;;;;;2.53;1.40;;;24.80;62.10;;;;;;4992481;28;87738;-83
2023/08/22 04:30:38;;;;;;;1.73;1.58;;;24.70;62.00;;;;;;4990608;28;87289;-83
2023/08/22 04:33:04;;;;;;;1.40;1.30;;;24.70;62.00;;;;;;4991371;28;87568;-82
2023/08/22 04:35:30;;;;;;;2.13;1.60;;;24.70;62.00;;;;;;4989679;28;87434;-84
2023/08/22 04:37:56;;;;;;;1.40;1.30;;;24.70;62.00;;;;;;4992021;28;87139;-84
2023/08/22 04:40:22;;;;;;;1.60;1.50;;;24.80;61.90;;;;;;4991120;28;86938;-83
2023/08/22 04:42:47;;;;;;;1.40;1.30;;;24.70;62.10;;;;;;4991867;28;87456;-82
2023/08/22 04:45:13;;;;;;;1.67;1.58;;;24.70;61.90;;;;;;4991203;28;87377;-83
2023/08/22 04:47:39;;;;;;;1.77;1.50;;;24.70;61.80;;;;;;4989307;28;88467;-84
2023/08/22 04:50:05;;;;;;;1.50;1.33;;;24.70;62.10;;;;;;4989062;28;88488;-85
2023/08/22 04:52:31;;;;;;;1.45;1.20;;;24.70;62.00;;;;;;4990746;28;88991;-82
2023/08/22 04:54:57;;;;;;;1.35;1.25;;;24.70;61.90;;;;;;4991287;28;87843;-83
2023/08/22 04:57:23;;;;;;;1.75;1.30;;;24.70;61.90;;;;;;4991234;28;87769;-83
2023/08/22 04:59:52;;;;;;;1.50;1.40;;;24.70;62.10;;;;;;4988543;28;89887;-83
2023/08/22 05:02:18;;;;;;;1.55;1.40;;;24.70;62.00;;;;;;4989421;28;87859;-84
2023/08/22 05:04:43;;;;;;;2.25;1.30;;;24.70;61.90;;;;;;4989448;28;88673;-83
2023/08/22 05:07:09;;;;;;;2.92;1.50;;;24.70;62.00;;;;;;4989934;28;87638;-84
2023/08/22 05:09:35;;;;;;;3.13;1.63;;;24.70;62.00;;;;;;4987033;28;89320;-84
2023/08/22 05:12:00;;;;;;;4.10;1.52;;;24.70;62.10;;;;;;4991142;28;89256;-88
2023/08/22 05:14:27;;;;;;;2.10;1.40;;;24.70;61.80;;;;;;4989887;28;88219;-83
2023/08/22 05:16:53;;;;;;;2.22;1.50;;;24.70;61.80;;;;;;4988796;28;87565;-83
2023/08/22 05:19:19;;;;;;;1.42;1.33;;;24.70;62.10;;;;;;4989485;28;89459;-83
2023/08/22 05:21:45;;;;;;;2.20;1.55;;;24.70;61.70;;;;;;4990529;28;88179;-83
2023/08/22 05:24:10;;;;;;;2.50;1.40;;;24.70;61.80;;;;;;4989794;28;88004;-82
2023/08/22 05:26:36;;;;;;;2.40;1.50;;;24.70;61.70;;;;;;4989999;28;87580;-84
2023/08/22 05:29:02;;;;;;;2.45;1.63;;;24.70;61.80;;;;;;4990215;28;87492;-83
2023/08/22 05:31:28;;;;;;;1.52;1.42;;;24.70;61.50;;;;;;4988927;28;88708;-82
2023/08/22 05:33:53;;;;;;;2.65;1.70;;;24.70;61.60;;;;;;4989092;28;88088;-82
2023/08/22 05:36:19;;;;;;;2.00;1.67;;;24.80;62.00;;;;;;4991882;28;87803;-85
2023/08/22 05:38:45;;;;;;;2.40;1.55;;;24.80;62.00;;;;;;4991966;28;87700;-91
2023/08/22 05:41:10;;;;;;;20.42;4.72;;;24.80;62.00;;;;;;4989505;28;90899;-90
2023/08/22 05:43:36;;;;;;;50.70;10.15;;;24.80;60.40;;;;;;4988923;28;91529;-88
2023/08/22 05:46:02;;;;;;;22.10;5.57;;;24.90;59.00;;;;;;4988760;28;87349;-88
2023/08/22 05:48:28;;;;;;;21.50;3.50;;;24.80;57.80;;;;;;4989207;28;89314;-89
2023/08/22 05:50:54;;;;;;;11.00;3.17;;;24.70;57.40;;;;;;4988985;28;89652;-88
2023/08/22 05:53:20;;;;;;;6.28;2.30;;;24.60;57.30;;;;;;4992271;28;87529;-87
2023/08/22 05:55:45;;;;;;;13.45;3.13;;;24.60;57.60;;;;;;4991645;28;88103;-88
2023/08/22 05:58:11;;;;;;;14.05;3.10;;;24.50;57.80;;;;;;4989186;28;89902;-88
2023/08/22 06:00:37;;;;;;;16.00;3.50;;;24.50;58.00;;;;;;4989956;28;89208;-90
2023/08/22 06:03:03;;;;;;;7.03;3.00;;;24.50;58.10;;;;;;4992791;28;88273;-89
2023/08/22 06:05:28;;;;;;;11.40;3.22;;;24.50;58.30;;;;;;4989354;28;88850;-87
2023/08/22 06:07:54;;;;;;;10.52;2.25;;;24.50;58.30;;;;;;4983125;28;88800;-86
2023/08/22 06:10:22;;;;;;;10.27;3.50;;;24.60;58.40;;;;;;4990105;28;89588;-88
2023/08/22 06:12:48;;;;;;;4.63;2.60;;;24.60;58.60;;;;;;4990262;28;87290;-86
2023/08/22 06:15:13;;;;;;;12.70;2.88;;;24.60;58.70;;;;;;4988053;28;87409;-87
2023/08/22 06:17:39;;;;;;;10.60;3.00;;;24.60;58.80;;;;;;4988181;28;86786;-89
2023/08/22 06:20:06;;;;;;;5.72;2.67;;;24.50;59.20;;;;;;4987644;28;87847;-89
2023/08/22 06:22:31;;;;;;;6.40;2.92;;;24.60;59.30;;;;;;4987734;28;88070;-91
2023/08/22 06:24:57;;;;;;;9.90;3.63;;;24.60;59.60;;;;;;4983636;28;88742;-88
2023/08/22 06:27:23;;;;;;;11.82;3.47;;;24.60;59.60;;;;;;4986990;28;87651;-88
2023/08/22 06:29:48;;;;;;;7.97;3.38;;;24.70;59.90;;;;;;4985136;28;87645;-87
2023/08/22 06:32:14;;;;;;;10.10;3.70;;;24.70;60.10;;;;;;4985256;28;87885;-87
2023/08/22 06:34:40;;;;;;;13.20;3.63;;;24.70;60.30;;;;;;4984630;28;87718;-85
2023/08/22 06:37:06;;;;;;;6.72;3.72;;;24.70;60.60;;;;;;4986364;28;87230;-87
2023/08/22 06:39:32;;;;;;;6.13;3.58;;;24.70;60.70;;;;;;4985379;28;88344;-85
2023/08/22 06:41:58;;;;;;;14.68;5.15;;;24.80;61.00;;;;;;4985524;28;88869;-86
2023/08/22 06:44:24;;;;;;;9.30;3.58;;;24.70;61.20;;;;;;4984741;28;88238;-85
2023/08/22 06:46:49;;;;;;;11.15;3.88;;;24.70;61.10;;;;;;4983991;28;87979;-85
2023/08/22 06:49:15;;;;;;;12.38;4.25;;;24.70;61.00;;;;;;4983991;28;89430;-84
2023/08/22 06:51:41;;;;;;;9.80;4.05;;;24.80;61.20;;;;;;4983027;28;91302;-85
2023/08/22 06:54:06;;;;;;;9.57;3.85;;;24.80;60.90;;;;;;4985321;28;87364;-88
2023/08/22 06:56:32;;;;;;;11.23;3.97;;;24.80;61.40;;;;;;4983182;28;88606;-85
2023/08/22 06:58:57;;;;;;;10.90;4.30;;;24.80;61.30;;;;;;4985250;28;87853;-85
2023/08/22 07:01:23;;;;;;;10.73;4.30;;;24.70;61.20;;;;;;4982630;28;87760;-85
2023/08/22 07:03:49;;;;;;;7.18;3.85;;;24.80;61.80;;;;;;4980780;28;88399;-85
2023/08/22 07:06:14;;;;;;;8.38;3.88;;;24.70;61.50;;;;;;4984564;28;87092;-85
2023/08/22 07:08:40;;;;;;;9.82;4.50;;;24.80;61.90;;;;;;4986101;28;88232;-85
2023/08/22 07:11:06;;;;;;;9.80;4.22;;;24.70;62.30;;;;;;4983184;28;87918;-85
2023/08/22 07:13:33;;;;;;;9.60;4.40;;;24.70;62.50;;;;;;4982762;28;88440;-85
2023/08/22 07:15:58;;;;;;;7.93;4.00;;;24.70;62.80;;;;;;4982517;28;88323;-85
2023/08/22 07:18:26;;;;;;;9.70;4.00;;;24.70;62.80;;;;;;4984481;28;88015;-85
2023/08/22 07:20:52;;;;;;;7.97;3.72;;;24.70;63.00;;;;;;4985189;28;87747;-85
2023/08/22 07:23:21;;;;;;;9.27;3.92;;;24.70;63.00;;;;;;4977722;28;88009;-87
2023/08/22 07:25:48;;;;;;;9.10;4.30;;;24.70;63.00;;;;;;4976791;28;87673;-89
2023/08/22 07:28:14;;;;;;;15.25;4.90;;;24.70;63.30;;;;;;4977736;28;88248;-87
2023/08/22 07:30:40;;;;;;;14.23;5.07;;;24.70;63.00;;;;;;4981736;28;88295;-87
2023/08/22 07:33:06;;;;;;;10.93;5.13;;;24.70;63.00;;;;;;4982267;28;87561;-87
2023/08/22 07:35:35;;;;;;;11.05;4.38;;;24.60;62.90;;;;;;4979365;28;87821;-89
2023/08/22 07:38:00;;;;;;;11.85;4.15;;;24.60;63.00;;;;;;4981582;28;88615;-88
2023/08/22 07:40:26;;;;;;;10.43;4.57;;;24.70;62.80;;;;;;4979524;28;89720;-89
2023/08/22 07:42:52;;;;;;;11.52;4.75;;;24.60;62.60;;;;;;4981139;28;88007;-88
2023/08/22 07:45:18;;;;;;;15.88;4.78;;;24.70;62.20;;;;;;4978361;28;88011;-88
2023/08/22 07:47:44;;;;;;;12.90;4.63;;;24.80;62.60;;;;;;4979159;28;87196;-89
2023/08/22 07:50:10;;;;;;;14.13;4.32;;;24.80;62.60;;;;;;4977536;28;90683;-88
2023/08/22 07:52:36;;;;;;;14.07;4.55;;;24.80;62.60;;;;;;4981991;28;87344;-87
2023/08/22 07:55:02;;;;;;;15.68;4.13;;;24.80;63.00;;;;;;4979649;28;87372;-88
2023/08/22 07:57:28;;;;;;;14.90;3.90;;;24.80;62.90;;;;;;4980695;28;87844;-87
2023/08/22 07:59:54;;;;;;;9.50;4.07;;;24.80;62.60;;;;;;4982376;28;88026;-89
2023/08/22 08:02:19;;;;;;;14.20;4.40;;;24.90;62.60;;;;;;4981879;28;88551;-85
2023/08/22 08:04:45;;;;;;;9.75;4.18;;;24.90;63.00;;;;;;4982264;28;87980;-87
2023/08/22 08:07:11;;;;;;;22.70;4.55;;;25.00;63.00;;;;;;4980143;28;88607;-85
2023/08/22 08:09:36;;;;;;;10.35;3.88;;;25.00;63.30;;;;;;4981101;28;88068;-86
2023/08/22 08:12:03;;;;;;;7.80;3.75;;;25.00;63.10;;;;;;4981365;28;88418;-86
2023/08/22 08:14:29;;;;;;;12.88;4.75;;;25.10;62.80;;;;;;4980314;28;94081;-86
2023/08/22 08:16:54;;;;;;;10.95;4.05;;;25.10;61.50;;;;;;4981508;28;88706;-86
2023/08/22 08:19:20;;;;;;;8.77;3.95;;;25.10;61.90;;;;;;4981229;28;88713;-87
2023/08/22 08:21:46;;;;;;;15.82;4.00;;;25.20;62.10;;;;;;4980242;28;87934;-86
2023/08/22 08:24:11;;;;;;;8.82;3.53;;;25.10;62.30;;;;;;4979890;28;88097;-86
2023/08/22 08:26:37;;;;;;;11.30;3.58;;;25.10;62.10;;;;;;4981171;28;88474;-86
2023/08/22 08:29:03;;;;;;;10.18;3.70;;;25.10;62.20;;;;;;4980244;28;89023;-86
2023/08/22 08:31:29;;;;;;;7.78;3.63;;;25.10;61.90;;;;;;4978586;28;87915;-86
2023/08/22 08:33:54;;;;;;;11.73;3.28;;;25.10;61.70;;;;;;4981420;28;87836;-86
2023/08/22 08:36:20;;;;;;;9.63;4.05;;;25.10;61.60;;;;;;4979859;28;88207;-87
2023/08/22 08:38:46;;;;;;;10.25;3.22;;;25.20;61.70;;;;;;4982451;28;87904;-86
2023/08/22 08:41:12;;;;;;;6.57;3.00;;;25.20;62.20;;;;;;4981239;28;87709;-88
2023/08/22 08:43:38;;;;;;;9.95;3.58;;;25.20;61.10;;;;;;4978832;28;90088;-88
2023/08/22 08:46:04;;;;;;;8.80;2.97;;;25.20;61.30;;;;;;4977531;28;90138;-88
2023/08/22 08:48:30;;;;;;;10.80;3.22;;;25.20;61.40;;;;;;4978509;28;90603;-86
2023/08/22 08:51:00;;;;;;;6.65;3.20;;;25.30;61.10;;;;;;4979982;28;89088;-87
2023/08/22 08:53:27;;;;;;;12.25;3.90;;;25.30;60.90;;;;;;4982015;28;87475;-86
2023/08/22 08:55:53;;;;;;;11.18;3.83;;;25.30;61.10;;;;;;4982433;28;88065;-86
2023/08/22 08:58:19;;;;;;;9.27;3.10;;;25.30;61.30;;;;;;4982150;28;94396;-86
2023/08/22 09:00:45;;;;;;;9.93;3.25;;;25.30;61.40;;;;;;4981359;28;86990;-87
2023/08/22 09:03:11;;;;;;;6.90;2.63;;;25.30;61.50;;;;;;4983363;28;87720;-87
2023/08/22 09:05:37;;;;;;;14.75;3.42;;;25.20;61.30;;;;;;4983013;28;88074;-86
2023/08/22 09:08:16;;;;;;;7.57;3.53;;;25.30;62.80;;;;;;4982839;28;87751;-87
2023/08/22 09:10:41;;;;;;;12.02;2.88;;;25.30;61.70;;;;;;4981149;28;87453;-87
2023/08/22 09:13:07;;;;;;;4.80;2.55;;;25.30;61.70;;;;;;4980388;28;88989;-87
2023/08/22 09:15:33;;;;;;;11.23;3.15;;;25.30;62.60;;;;;;4980677;28;88990;-86
2023/08/22 09:17:58;;;;;;;7.88;3.30;;;25.30;61.60;;;;;;4982424;28;90086;-88
2023/08/22 09:20:24;;;;;;;5.30;2.63;;;25.40;61.70;;;;;;4982138;28;88018;-89
2023/08/22 09:22:50;;;;;;;8.02;3.13;;;25.50;61.50;;;;;;4981550;28;87920;-87
2023/08/22 09:25:16;;;;;;;6.38;2.65;;;25.60;60.80;;;;;;4981244;28;90203;-88
2023/08/22 09:27:48;;;;;;;5.90;2.80;;;25.60;60.90;;;;;;4982397;28;88343;-86
2023/08/22 09:30:15;;;;;;;19.13;6.13;;;25.60;60.80;;;;;;4982695;28;86929;-87
2023/08/22 09:32:41;;;;;;;9.88;4.32;;;25.70;59.80;;;;;;4982754;28;87052;-87
2023/08/22 09:35:07;;;;;;;24.20;5.63;;;25.80;59.70;;;;;;4981447;28;88571;-88
2023/08/22 09:37:33;;;;;;;22.45;7.90;;;25.70;59.80;;;;;;4980708;28;88152;-87
2023/08/22 09:39:59;;;;;;;24.80;7.20;;;25.70;60.40;;;;;;4981699;28;88848;-86
2023/08/22 09:42:29;;;;;;;28.63;7.50;;;25.70;60.40;;;;;;4979126;28;89880;-87
2023/08/22 09:44:58;;;;;;;20.10;6.90;;;25.70;61.30;;;;;;4980364;28;90065;-88
2023/08/22 09:47:30;;;;;;;20.77;6.82;;;25.80;59.90;;;;;;4979917;28;87527;-87
2023/08/22 09:49:59;;;;;;;18.75;6.05;;;25.80;60.30;;;;;;4980632;28;87510;-90
2023/08/22 09:52:25;;;;;;;;;;;25.80;60.20;;;;;;4985635;28;87875;-92
2023/08/22 09:54:52;;;;;;;11.70;4.78;;;25.80;59.90;;;;;;4985571;28;90521;-93
2023/08/22 09:57:18;;;;;;;19.10;5.35;;;25.90;59.80;;;;;;4982213;28;89155;-91
2023/08/22 09:59:47;;;;;;;19.13;4.95;;;25.80;60.10;;;;;;4984771;28;88106;-93
2023/08/22 10:02:14;;;;;;;14.18;4.68;;;25.90;60.20;;;;;;4984133;28;87956;-90
2023/08/22 10:04:40;;;;;;;15.27;4.50;;;26.00;60.70;;;;;;4982332;28;89117;-90
2023/08/22 10:07:06;;;;;;;12.43;4.60;;;26.00;60.80;;;;;;4977635;28;91336;-90
2023/08/22 10:09:32;;;;;;;12.15;4.75;;;26.10;60.70;;;;;;4985822;28;87253;-87
2023/08/22 10:12:02;;;;;;;16.35;4.72;;;26.20;60.80;;;;;;4987160;28;89796;-86
2023/08/22 10:14:41;;;;;;;12.23;3.78;;;26.20;60.60;;;;;;4986698;28;87913;-88
2023/08/22 10:17:12;;;;;;;17.10;4.13;;;26.20;60.70;;;;;;4987581;28;87135;-85
2023/08/22 10:19:38;;;;;;;10.68;4.03;;;26.20;60.90;;;;;;4984042;28;87302;-86
2023/08/22 10:22:09;;;;;;;9.38;3.80;;;26.20;61.20;;;;;;4987964;28;87491;-86
2023/08/22 10:24:35;;;;;;;10.32;3.47;;;26.30;61.70;;;;;;4988520;28;87624;-86
2023/08/22 10:27:04;;;;;;;11.90;3.40;;;26.30;61.60;;;;;;4988020;28;87934;-85
2023/08/22 10:29:36;;;;;;;11.27;4.00;;;26.30;62.10;;;;;;4984443;28;88347;-86
2023/08/22 10:32:01;;;;;;;10.32;3.25;;;26.40;61.90;;;;;;4984645;28;87281;-85
2023/08/22 10:34:40;;;;;;;7.72;3.90;;;26.40;61.90;;;;;;4983619;28;88663;-87
2023/08/22 10:37:18;;;;;;;13.30;4.38;;;26.40;62.10;;;;;;4983874;28;89148;-86
2023/08/22 10:39:45;;;;;;;8.20;3.40;;;26.40;62.20;;;;;;4984536;28;88512;-86
2023/08/22 10:42:13;;;;;;;8.50;3.85;;;26.40;62.10;;;;;;4985545;28;87656;-86
2023/08/22 10:44:42;;;;;;;12.00;4.10;;;26.40;62.20;;;;;;4985948;28;88496;-85
2023/08/22 10:47:18;;;;;;;9.98;3.45;;;26.40;61.90;;;;;;4985706;28;87427;-86
2023/08/22 10:49:48;;;;;;;12.05;3.85;;;26.50;62.10;;;;;;4985135;28;88226;-86
2023/08/22 10:52:16;;;;;;;8.52;3.58;;;26.50;61.90;;;;;;4980756;28;89281;-86
2023/08/22 10:55:08;;;;;;;7.07;3.37;;;26.50;62.00;;;;;;4980485;28;91441;-87
2023/08/22 10:57:44;;;;;;;8.32;3.40;;;26.40;62.00;;;;;;4999947;28;90566;-86
2023/08/22 11:00:19;;;;;;;8.80;3.13;;;26.50;62.20;;;;;;4987318;28;87620;-86
2023/08/22 11:02:47;;;;;;;8.48;2.80;;;26.40;61.90;;;;;;4986178;28;87327;-87
2023/08/22 11:05:13;;;;;;;9.43;3.50;;;26.50;61.90;;;;;;4983348;28;87825;-87
2023/08/22 11:07:41;;;;;;;6.72;2.90;;;26.50;62.10;;;;;;4981813;28;88135;-87
2023/08/22 11:10:23;;;;;;;11.75;3.90;;;26.50;62.30;;;;;;4983020;28;87759;-88
2023/08/22 11:12:53;;;;;;;6.57;2.80;;;26.50;62.50;;;;;;4984762;28;87730;-88
2023/08/22 11:15:19;;;;;;;8.68;3.03;;;26.50;62.60;;;;;;4977274;28;90619;-87
2023/08/22 11:17:50;;;;;;;12.18;3.67;;;26.50;62.80;;;;;;4977468;28;89885;-87
2023/08/22 11:20:18;;;;;;;8.88;3.00;;;26.50;62.70;;;;;;4978315;28;89142;-89
2023/08/22 11:22:44;;;;;;;7.20;3.47;;;26.50;62.70;;;;;;4973478;28;89485;-88
2023/08/22 11:25:12;;;;;;;11.15;3.05;;;26.50;62.60;;;;;;4971407;28;88725;-89
2023/08/22 11:27:38;;;;;;;10.00;3.47;;;26.50;62.80;;;;;;4979494;28;87972;-89
2023/08/22 11:30:05;;;;;;;7.75;3.20;;;26.50;62.60;;;;;;4979529;28;87892;-88
2023/08/22 11:32:35;;;;;;;12.55;3.28;;;26.50;62.70;;;;;;4979228;28;90392;-89
2023/08/22 11:35:03;;;;;;;;;;;26.50;62.60;;;;;;4981332;28;87754;-88
2023/08/22 11:37:38;;;;;;;12.02;2.65;;;26.60;62.60;;;;;;4977905;28;87537;-88
2023/08/22 11:40:05;;;;;;;6.80;3.13;;;26.60;62.60;;;;;;4980257;28;87365;-88
2023/08/22 11:42:33;;;;;;;11.45;3.13;;;26.60;62.40;;;;;;4980758;28;87437;-88
2023/08/22 11:45:04;;;;;;;9.43;2.97;;;26.60;62.20;;;;;;4982014;28;89217;-88
2023/08/22 11:47:53;;;;;;;7.80;2.58;;;26.70;61.50;;;;;;4984480;28;91900;-88
2023/08/22 11:50:24;;;;;;;11.93;3.17;;;26.60;61.60;;;;;;4983192;28;88555;-87
2023/08/22 11:53:06;;;;;;;17.52;3.40;;;26.70;61.80;;;;;;4985149;28;87376;-88
2023/08/22 11:55:32;;;;;;;8.55;2.60;;;26.60;61.90;;;;;;4989214;28;87607;-87
2023/08/22 11:58:05;;;;;;;10.27;3.08;;;26.70;62.20;;;;;;4987536;28;88000;-86
2023/08/22 12:00:35;;;;;;;7.72;2.50;;;26.70;62.30;;;;;;4988703;28;88670;-86
2023/08/22 12:03:05;;;;;;;8.38;2.42;;;26.70;62.20;;;;;;4989992;28;87126;-88
2023/08/22 12:05:35;;;;;;;9.52;2.80;;;26.80;62.50;;;;;;4983656;28;88242;-89
2023/08/22 12:08:17;;;;;;;9.55;2.47;;;26.80;61.60;;;;;;4978111;28;87943;-87
2023/08/22 12:10:50;;;;;;;13.35;2.78;;;26.90;61.70;;;;;;4978172;28;88373;-88
2023/08/22 12:13:18;;;;;;;9.13;2.95;;;26.90;62.00;;;;;;4977049;28;90143;-88
2023/08/22 12:15:44;;;;;;;10.88;2.40;;;26.90;61.90;;;;;;4981660;28;87535;-91
2023/08/22 12:18:10;;;;;;;7.07;2.28;;;26.90;61.90;;;;;;4982757;28;88796;-88
2023/08/22 12:20:38;;;;;;;10.10;3.13;;;26.90;62.00;;;;;;4982538;28;88271;-88
2023/08/22 12:23:05;;;;;;;10.43;2.90;;;26.90;62.20;;;;;;4981002;28;89892;-88
2023/08/22 12:25:33;;;;;;;16.02;3.15;;;26.90;62.10;;;;;;4979705;28;88723;-90
2023/08/22 12:27:58;;;;;;;12.63;3.33;;;26.80;62.40;;;;;;4978728;28;87758;-87
2023/08/22 12:30:24;;;;;;;9.88;3.28;;;26.80;62.20;;;;;;4981320;28;87598;-89
2023/08/22 12:32:50;;;;;;;8.05;3.42;;;26.80;62.60;;;;;;4981576;28;88384;-89
2023/08/22 12:35:15;;;;;;;13.63;3.70;;;26.80;62.50;;;;;;4980632;28;89760;-89
2023/08/22 12:37:41;;;;;;;12.75;3.78;;;26.80;62.90;;;;;;4982555;28;89484;-93
2023/08/22 12:40:12;;;;;;;11.10;2.90;;;26.70;63.00;;;;;;4983362;28;87103;-90
2023/08/22 12:42:41;;;;;;;15.00;4.00;;;26.70;63.10;;;;;;4981238;28;87490;-90